Time;durP1;ratioP1;P1;durP2;ratioP2;P2;SDS_P1;SDS_P2;PMS_P1;PMS_P2;Temp;Humidity;BMP_temperature;BMP_pressure;BME280_temperature;BME280_humidity;BME280_pressure;Samples;Min_cycle;Max_cycle;Signal;HPM_P1;HPM_P2
2024/01/09 00:05:19;;;;;;;0.10;0.10;;;;;;;-8.04;66.88;103288.13;15671602;28;20037;-51
2024/01/09 00:12:54;;;;;;;0.10;0.10;;;;;;;-8.11;67.23;103296.94;15660982;28;20094;-48
2024/01/09 00:20:28;;;;;;;0.10;0.10;;;;;;;-8.09;67.09;103298.66;15654359;28;20045;-50
2024/01/09 00:28:03;;;;;;;0.38;0.38;;;;;;;-7.84;66.50;103301.66;15659394;28;20047;-51
2024/01/09 00:35:37;;;;;;;0.10;0.10;;;;;;;-7.68;66.17;103311.81;15675541;28;20037;-51
2024/01/09 00:43:12;;;;;;;0.10;0.10;;;;;;;-8.03;67.15;103318.53;15683972;28;20148;-51
2024/01/09 00:50:45;;;;;;;0.10;0.10;;;;;;;-8.31;67.71;103311.16;15646584;28;20053;-51
2024/01/09 00:58:20;;;;;;;1.45;1.13;;;;;;;-8.49;66.99;103308.91;15660333;28;20029;-49
2024/01/09 01:05:53;;;;;;;0.10;0.10;;;;;;;-8.48;66.96;103323.66;15667932;28;20140;-52
2024/01/09 01:13:29;;;;;;;0.10;0.10;;;;;;;-8.36;66.77;103325.19;15676083;28;20037;-53
2024/01/09 01:21:04;;;;;;;0.10;0.10;;;;;;;-8.43;66.96;103318.38;15675066;28;20045;-50
2024/01/09 01:28:39;;;;;;;0.10;0.10;;;;;;;-8.59;67.88;103321.19;15684780;28;20064;-51
2024/01/09 01:36:15;;;;;;;0.35;0.35;;;;;;;-8.35;67.57;103316.44;15663846;28;20073;-50
2024/01/09 01:43:50;;;;;;;0.10;0.10;;;;;;;-7.93;66.56;103308.78;15683759;28;20072;-55
2024/01/09 01:51:24;;;;;;;0.10;0.10;;;;;;;-7.70;65.98;103307.47;15665395;28;20140;-52
2024/01/09 01:59:00;;;;;;;0.10;0.10;;;;;;;-8.05;66.09;103320.31;15665156;28;20490;-49
2024/01/09 02:06:37;;;;;;;0.10;0.10;;;;;;;-8.74;68.52;103326.66;15663834;28;20045;-51
2024/01/09 02:14:16;;;;;;;0.10;0.10;;;;;;;-8.56;67.74;103313.34;15663982;28;20054;-50
2024/01/09 02:21:51;;;;;;;0.10;0.10;;;;;;;-8.79;68.57;103312.84;15670979;28;20314;-52
2024/01/09 02:29:25;;;;;;;0.95;0.95;;;;;;;-8.91;69.73;103319.06;15670756;28;20042;-51
2024/01/09 02:37:00;;;;;;;0.93;0.47;;;;;;;-8.70;69.15;103324.88;15676031;28;20396;-51
2024/01/09 02:44:33;;;;;;;0.20;0.20;;;;;;;-8.90;68.97;103326.00;15657812;28;20072;-50
2024/01/09 02:52:10;;;;;;;0.10;0.10;;;;;;;-8.87;70.04;103317.28;15679585;28;20048;-51
2024/01/09 02:59:49;;;;;;;0.13;0.13;;;;;;;-8.59;68.74;103326.41;15645358;28;20036;-50
2024/01/09 03:07:24;;;;;;;0.10;0.10;;;;;;;-8.25;67.70;103325.88;15668927;28;20045;-54
2024/01/09 03:14:58;;;;;;;0.10;0.10;;;;;;;-8.50;67.59;103321.06;15622313;28;20045;-51
2024/01/09 03:22:33;;;;;;;0.10;0.10;;;;;;;-7.92;67.12;103334.00;15673355;28;20080;-53
2024/01/09 03:30:09;;;;;;;2.75;2.63;;;;;;;-8.32;67.69;103329.44;15674819;28;20049;-52
2024/01/09 03:37:44;;;;;;;0.25;0.25;;;;;;;-8.65;68.95;103323.03;15666961;28;20045;-53
2024/01/09 03:45:18;;;;;;;0.10;0.10;;;;;;;-9.29;70.78;103323.03;15660027;28;20045;-50
2024/01/09 03:52:54;;;;;;;0.10;0.10;;;;;;;-9.20;70.95;103324.66;15679335;28;20057;-51
2024/01/09 04:00:29;;;;;;;0.10;0.10;;;;;;;-9.27;71.17;103317.84;15679670;28;20391;-53
2024/01/09 04:08:05;;;;;;;0.10;0.10;;;;;;;-9.29;71.43;103319.56;15651647;28;20048;-49
2024/01/09 04:15:39;;;;;;;1.50;1.40;;;;;;;-9.27;70.94;103316.09;15667763;28;20033;-52
2024/01/09 04:23:14;;;;;;;0.10;0.10;;;;;;;-9.33;72.00;103308.34;15691721;28;20033;-51
2024/01/09 04:30:48;;;;;;;0.15;0.15;;;;;;;-8.82;69.94;103321.53;15688524;28;20037;-52
2024/01/09 04:38:23;;;;;;;0.10;0.10;;;;;;;-9.54;72.12;103317.28;15671378;28;20090;-51
2024/01/09 04:46:03;;;;;;;0.10;0.10;;;;;;;-9.66;72.81;103319.13;15691042;28;20151;-49
2024/01/09 04:53:38;;;;;;;0.20;0.20;;;;;;;-9.68;72.79;103324.38;15665304;28;20049;-53
2024/01/09 05:01:12;;;;;;;2.75;1.30;;;;;;;-10.07;73.57;103266.75;15663153;28;20048;-54
2024/01/09 05:08:49;;;;;;;5.93;1.38;;;;;;;-9.92;73.55;103314.22;15687156;28;20041;-54
2024/01/09 05:16:24;;;;;;;0.10;0.10;;;;;;;-10.10;74.16;103323.91;15679595;28;20192;-52
2024/01/09 05:24:01;;;;;;;0.20;0.20;;;;;;;-9.76;73.27;103314.03;15684700;28;20069;-51
2024/01/09 05:31:42;;;;;;;0.17;0.17;;;;;;;-9.83;72.87;103303.75;15656229;28;20037;-52
2024/01/09 05:39:19;;;;;;;0.10;0.10;;;;;;;-10.01;74.17;103328.16;15651601;28;20048;-52
2024/01/09 05:46:53;;;;;;;0.13;0.13;;;;;;;-9.78;73.18;103323.59;15667560;28;20049;-53
2024/01/09 05:54:30;;;;;;;0.20;0.20;;;;;;;-9.21;70.78;103329.91;15643620;28;20044;-54
2024/01/09 06:02:04;;;;;;;0.20;0.20;;;;;;;-9.78;72.17;103323.59;15668555;28;20168;-51
2024/01/09 06:09:39;;;;;;;0.10;0.10;;;;;;;-9.38;72.59;103333.53;15683964;28;20118;-51
2024/01/09 06:17:13;;;;;;;0.10;0.10;;;;;;;-9.56;72.38;103332.03;15687728;28;20049;-53
2024/01/09 06:24:48;;;;;;;0.10;0.10;;;;;;;-9.88;73.52;103327.19;15653689;28;20053;-51
2024/01/09 06:32:22;;;;;;;0.10;0.10;;;;;;;-10.14;74.34;103342.13;15664188;28;20538;-49
2024/01/09 06:39:58;;;;;;;0.10;0.10;;;;;;;-9.98;74.55;103332.44;15658600;28;20045;-53
2024/01/09 06:47:31;;;;;;;0.17;0.17;;;;;;;-10.07;73.92;103339.47;15684434;28;20071;-53
2024/01/09 06:55:08;;;;;;;0.10;0.10;;;;;;;-10.26;74.70;103343.13;15661010;28;20072;-55
2024/01/09 07:02:44;;;;;;;0.15;0.15;;;;;;;-10.34;75.08;103345.78;15682667;28;20127;-54
2024/01/09 07:10:19;;;;;;;0.10;0.10;;;;;;;-9.82;73.56;103342.69;15647638;28;20387;-52
2024/01/09 07:17:52;;;;;;;0.10;0.10;;;;;;;-9.45;71.71;103355.31;15662708;28;20049;-51
2024/01/09 07:25:28;;;;;;;0.20;0.20;;;;;;;-10.10;73.70;103359.41;15672855;28;20238;-54
2024/01/09 07:33:01;;;;;;;1.90;1.75;;;;;;;-9.90;73.89;103367.88;15664492;28;20478;-54
2024/01/09 07:40:36;;;;;;;3.20;2.47;;;;;;;-10.18;73.74;103328.31;15660289;28;20048;-52
2024/01/09 07:48:10;;;;;;;0.20;0.20;;;;;;;-9.80;74.17;103364.31;15661603;28;20049;-51
2024/01/09 07:55:45;;;;;;;0.17;0.17;;;;;;;-9.85;74.02;103371.28;15680560;28;20045;-57
2024/01/09 08:03:19;;;;;;;0.10;0.10;;;;;;;-9.53;73.58;103383.13;15661889;28;20109;-51
2024/01/09 08:10:56;;;;;;;0.10;0.10;;;;;;;-9.81;73.32;103379.94;15666122;28;20052;-55
2024/01/09 08:18:32;;;;;;;0.13;0.13;;;;;;;-9.31;73.20;103386.38;15669271;28;20107;-53
2024/01/09 08:26:13;;;;;;;0.10;0.10;;;;;;;-9.26;72.82;103387.16;15670411;28;20053;-52
2024/01/09 08:33:47;;;;;;;0.38;0.38;;;;;;;-9.50;72.91;103380.50;15682573;28;20455;-51
2024/01/09 08:41:22;;;;;;;0.10;0.10;;;;;;;-8.98;71.94;103389.44;15681945;28;20037;-53
2024/01/09 08:48:56;;;;;;;0.10;0.10;;;;;;;-9.13;72.21;103387.91;15685275;28;20069;-51
2024/01/09 08:56:31;;;;;;;0.13;0.13;;;;;;;-8.97;71.24;103373.81;15635203;28;20045;-51
2024/01/09 09:04:05;;;;;;;6.15;4.85;;;;;;;-8.77;70.91;103381.34;15685424;28;20047;-50
2024/01/09 09:11:40;;;;;;;1.75;1.65;;;;;;;-8.01;68.28;103380.16;15690980;28;20087;-54
2024/01/09 09:19:14;;;;;;;0.10;0.10;;;;;;;-6.99;64.00;103376.53;15691023;28;20045;-50
2024/01/09 09:26:49;;;;;;;0.00;0.00;;;;;;;-6.21;60.20;103383.44;15691575;28;20049;-49
2024/01/09 09:34:23;;;;;;;0.10;0.10;;;;;;;-5.30;59.32;103373.25;15688616;28;20040;-52
2024/01/09 09:41:58;;;;;;;0.00;0.00;;;;;;;-5.04;56.78;103364.63;15678440;28;20050;-56
2024/01/09 09:49:33;;;;;;;0.00;0.00;;;;;;;-5.04;56.04;103367.25;15688682;28;20057;-49
2024/01/09 09:57:09;;;;;;;0.20;0.20;;;;;;;-4.68;55.71;103376.63;15660292;28;20528;-50
2024/01/09 10:04:47;;;;;;;2.95;2.45;;;;;;;-4.96;56.08;103363.50;15688563;28;20052;-53
2024/01/09 10:12:24;;;;;;;0.10;0.10;;;;;;;-4.29;53.65;103364.94;15687011;28;20049;-54
2024/01/09 10:19:59;;;;;;;0.10;0.10;;;;;;;-2.75;52.01;103342.84;15658050;28;20059;-55
2024/01/09 10:27:36;;;;;;;2.22;2.05;;;;;;;-3.73;52.62;103347.34;15688520;28;20048;-52
2024/01/09 10:35:17;;;;;;;0.38;0.38;;;;;;;-2.51;50.57;103336.63;15689426;28;20409;-53
2024/01/09 10:42:53;;;;;;;0.10;0.10;;;;;;;-3.41;51.76;103343.53;15673593;28;20143;-49
2024/01/09 10:50:29;;;;;;;0.00;0.00;;;;;;;-3.12;51.42;103344.28;15661838;28;20043;-54
2024/01/09 10:58:07;;;;;;;0.32;0.32;;;;;;;-2.70;50.97;103341.78;15674358;28;20048;-57
2024/01/09 11:05:42;;;;;;;0.20;0.20;;;;;;;-2.98;50.57;103336.72;15676316;28;20037;-51
2024/01/09 11:13:19;;;;;;;0.00;0.00;;;;;;;-2.79;49.84;103329.00;15688177;28;20044;-53
2024/01/09 11:21:00;;;;;;;0.28;0.28;;;;;;;-2.38;48.03;103321.19;15664348;28;20089;-50
2024/01/09 11:28:39;;;;;;;0.32;0.32;;;;;;;-1.75;47.60;103332.59;15646904;28;20079;-50
2024/01/09 11:36:14;;;;;;;0.13;0.13;;;;;;;-0.94;45.81;103322.78;15658998;28;20049;-51
2024/01/09 11:44:05;;;;;;;0.15;0.15;;;;;;;-1.55;47.13;103310.63;15688052;28;20116;-53
2024/01/09 11:51:39;;;;;;;4.47;0.98;;;;;;;0.04;44.09;103302.16;15685511;28;20071;-52
2024/01/09 11:59:17;;;;;;;0.65;0.65;;;;;;;0.67;41.80;103286.50;15688473;28;20045;-54
2024/01/09 12:06:51;;;;;;;0.28;0.28;;;;;;;0.00;43.47;103296.22;15650759;28;20053;-51
2024/01/09 12:14:28;;;;;;;0.10;0.10;;;;;;;1.62;38.64;103276.72;15688458;28;20056;-49
2024/01/09 12:22:02;;;;;;;0.40;0.40;;;;;;;1.75;38.50;103266.28;15703767;22;20044;-52
2024/01/09 12:29:40;;;;;;;1.95;0.85;;;;;;;2.53;37.32;103258.88;15735745;28;20452;-49
2024/01/09 12:37:14;;;;;;;0.10;0.10;;;;;;;2.12;37.17;103251.69;15744770;28;20045;-50
2024/01/09 12:44:49;;;;;;;0.68;0.68;;;;;;;3.78;35.55;103233.94;15742990;28;20529;-53
2024/01/09 12:52:25;;;;;;;1.65;1.17;;;;;;;2.47;36.49;103238.03;15748585;28;20091;-50
2024/01/09 13:00:01;;;;;;;0.65;0.65;;;;;;;3.84;35.52;103229.03;15730234;28;20040;-51
2024/01/09 13:07:35;;;;;;;5.93;3.47;;;;;;;1.33;38.93;103230.78;15730337;28;20135;-51
2024/01/09 13:15:17;;;;;;;0.25;0.25;;;;;;;-0.98;43.96;103227.22;15728692;28;20033;-49
2024/01/09 13:22:52;;;;;;;0.30;0.30;;;;;;;-0.58;42.69;103231.38;15725160;28;20048;-49
2024/01/09 13:30:27;;;;;;;0.40;0.40;;;;;;;-0.30;43.53;103228.19;15743428;28;20037;-49
2024/01/09 13:38:05;;;;;;;0.40;0.40;;;;;;;-0.46;43.35;103221.16;15742308;28;20136;-47
2024/01/09 13:45:41;;;;;;;0.20;0.20;;;;;;;-0.23;43.63;103223.47;15733470;28;20143;-49
2024/01/09 13:53:17;;;;;;;1.25;1.15;;;;;;;-0.67;44.50;103223.91;15742878;28;20408;-48
2024/01/09 14:00:53;;;;;;;1.70;1.55;;;;;;;-1.98;47.17;103227.44;15709839;28;20435;-48
2024/01/09 14:08:26;;;;;;;0.45;0.45;;;;;;;-1.99;47.49;103216.06;15737691;28;20090;-48
2024/01/09 14:16:01;;;;;;;0.20;0.20;;;;;;;-2.61;49.65;103209.94;15738132;28;20048;-52
2024/01/09 14:23:35;;;;;;;0.57;0.57;;;;;;;-2.87;50.03;103207.53;15727129;28;20041;-49
2024/01/09 14:31:10;;;;;;;0.15;0.15;;;;;;;-2.97;51.25;103203.56;15729868;28;20048;-50
2024/01/09 14:38:44;;;;;;;1.80;0.70;;;;;;;-2.76;51.45;103204.47;15718624;28;20085;-50
2024/01/09 14:46:19;;;;;;;0.38;0.38;;;;;;;-2.37;51.13;103201.94;15729857;28;20055;-51
2024/01/09 14:53:52;;;;;;;0.10;0.10;;;;;;;-2.76;51.73;103191.31;15736745;28;20447;-49
2024/01/09 15:01:27;;;;;;;0.55;0.55;;;;;;;-2.68;51.41;103199.75;15737746;28;20049;-49
2024/01/09 15:09:03;;;;;;;0.28;0.28;;;;;;;-2.70;51.70;103189.31;15721585;28;20249;-48
2024/01/09 15:16:39;;;;;;;0.10;0.10;;;;;;;-3.34;52.18;103199.78;15729804;28;20123;-48
2024/01/09 15:24:13;;;;;;;3.50;2.67;;;;;;;-3.42;53.00;103202.69;15721054;28;20143;-47
2024/01/09 15:31:47;;;;;;;0.03;0.03;;;;;;;-3.70;52.77;103196.75;15712408;28;20045;-49
2024/01/09 15:39:21;;;;;;;0.10;0.10;;;;;;;-4.02;53.43;103200.56;15732056;28;20037;-49
2024/01/09 15:46:56;;;;;;;0.30;0.30;;;;;;;-4.05;52.37;103187.59;15726540;28;20493;-50
2024/01/09 15:54:34;;;;;;;0.35;0.35;;;;;;;-4.30;52.99;103161.34;15734333;28;20073;-49
2024/01/09 16:02:09;;;;;;;0.20;0.20;;;;;;;-4.25;54.17;103204.00;15730590;28;20103;-48
2024/01/09 16:09:42;;;;;;;0.55;0.55;;;;;;;-4.34;55.54;103199.94;15716774;28;20052;-52
2024/01/09 16:17:20;;;;;;;0.50;0.50;;;;;;;-4.84;57.33;103192.03;15717593;28;20044;-48
2024/01/09 16:24:54;;;;;;;2.33;1.00;;;;;;;-5.28;57.66;103190.81;15717308;28;20631;-49
2024/01/09 16:32:29;;;;;;;0.90;0.45;;;;;;;-4.97;57.29;103175.84;15713148;28;20039;-48
2024/01/09 16:40:02;;;;;;;0.10;0.10;;;;;;;-4.83;57.50;103172.78;15730732;28;20095;-49
2024/01/09 16:47:42;;;;;;;0.30;0.30;;;;;;;-4.21;55.83;103164.50;15726129;28;20047;-49
2024/01/09 16:55:16;;;;;;;0.28;0.28;;;;;;;-3.95;56.23;103165.34;15724557;28;20041;-49
2024/01/09 17:02:53;;;;;;;0.98;0.90;;;;;;;-4.42;56.51;103171.38;15703189;28;20450;-49
2024/01/09 17:10:28;;;;;;;0.20;0.20;;;;;;;-4.29;57.45;103173.56;15728666;28;20398;-48
2024/01/09 17:18:03;;;;;;;0.35;0.35;;;;;;;-4.74;59.25;103185.56;15731353;28;20075;-47
2024/01/09 17:25:45;;;;;;;3.20;0.73;;;;;;;-4.57;57.06;103171.03;15742073;28;20386;-50
2024/01/09 17:33:19;;;;;;;0.10;0.10;;;;;;;-5.10;59.68;103165.81;15725517;28;20055;-50
2024/01/09 17:40:53;;;;;;;0.10;0.10;;;;;;;-5.65;62.39;103174.44;15726617;28;20165;-48
2024/01/09 17:48:27;;;;;;;0.10;0.10;;;;;;;-6.22;64.03;103154.34;15716398;28;20408;-50
2024/01/09 17:56:02;;;;;;;0.20;0.20;;;;;;;-6.24;64.70;103182.28;15737701;28;20071;-49
2024/01/09 18:03:37;;;;;;;0.10;0.10;;;;;;;-6.61;64.82;103132.78;15689098;28;20053;-50
2024/01/09 18:11:20;;;;;;;0.10;0.10;;;;;;;-6.27;64.86;103177.13;15661025;28;20049;-50
2024/01/09 18:18:55;;;;;;;0.10;0.10;;;;;;;-6.55;65.05;103182.22;15722422;28;20128;-49
2024/01/09 18:26:30;;;;;;;0.10;0.10;;;;;;;-6.58;65.73;103184.06;15728798;28;20106;-47
2024/01/09 18:34:06;;;;;;;0.15;0.15;;;;;;;-6.76;66.35;103173.22;15701225;28;20033;-48
2024/01/09 18:41:41;;;;;;;0.10;0.10;;;;;;;-6.64;66.29;103174.63;15739710;28;20135;-45
2024/01/09 18:49:17;;;;;;;0.20;0.20;;;;;;;-6.65;66.75;103169.47;15713217;28;20045;-48
2024/01/09 18:56:53;;;;;;;0.22;0.22;;;;;;;-6.98;68.23;103158.97;15733031;28;20036;-45
2024/01/09 19:04:28;;;;;;;0.00;0.00;;;;;;;-7.00;68.59;103153.75;15737266;28;20144;-46
2024/01/09 19:12:04;;;;;;;0.10;0.10;;;;;;;-6.97;68.47;103160.66;15714213;28;20466;-45
2024/01/09 19:19:42;;;;;;;10.68;1.65;;;;;;;-6.60;67.92;103163.22;15711472;28;20098;-49
2024/01/09 19:27:16;;;;;;;0.10;0.10;;;;;;;-7.26;69.86;103162.22;15717862;28;20131;-44
2024/01/09 19:34:51;;;;;;;1.75;1.35;;;;;;;-7.20;69.45;103146.41;15735787;28;20040;-47
2024/01/09 19:42:25;;;;;;;2.28;1.38;;;;;;;-7.22;69.70;103142.16;15731789;28;20049;-48
2024/01/09 19:50:00;;;;;;;0.40;0.40;;;;;;;-6.97;68.47;103142.41;15732029;28;20040;-49
2024/01/09 19:57:34;;;;;;;0.90;0.90;;;;;;;-7.20;69.21;103142.97;15734288;28;20044;-48
2024/01/09 20:05:10;;;;;;;0.10;0.10;;;;;;;-7.12;68.95;103135.81;15734445;28;20036;-48
2024/01/09 20:12:46;;;;;;;3.03;2.33;;;;;;;-7.42;69.74;103128.69;15734473;28;20055;-48
2024/01/09 20:20:21;;;;;;;2.25;1.33;;;;;;;-7.53;70.17;103142.84;15732092;28;20040;-45
2024/01/09 20:27:55;;;;;;;0.17;0.17;;;;;;;-7.23;69.13;103141.28;15733927;28;20066;-50
2024/01/09 20:35:29;;;;;;;0.10;0.10;;;;;;;-7.65;70.45;103139.63;15709632;28;20098;-47
2024/01/09 20:43:03;;;;;;;1.67;1.55;;;;;;;-7.24;70.48;103149.13;15733184;28;20094;-51
2024/01/09 20:50:37;;;;;;;2.83;2.65;;;;;;;-6.78;67.67;103141.03;15716644;28;20422;-47
2024/01/09 20:58:11;;;;;;;0.10;0.10;;;;;;;-7.04;68.61;103138.22;15733451;28;20044;-46
2024/01/09 21:05:48;;;;;;;0.20;0.20;;;;;;;-6.91;67.61;103150.06;15744588;28;20177;-46
2024/01/09 21:13:22;;;;;;;0.10;0.10;;;;;;;-6.83;67.31;103155.09;15725763;28;20083;-45
2024/01/09 21:20:57;;;;;;;0.10;0.10;;;;;;;-7.64;70.32;103155.28;15727130;28;20082;-52
2024/01/09 21:28:30;;;;;;;0.40;0.40;;;;;;;-7.94;71.36;103148.94;15724540;28;20124;-51
2024/01/09 21:36:09;;;;;;;0.10;0.10;;;;;;;-7.25;70.08;103139.59;15743485;28;20584;-46
2024/01/09 21:43:43;;;;;;;0.20;0.20;;;;;;;-7.33;69.92;103139.78;15741789;28;20500;-48
2024/01/09 21:51:18;;;;;;;0.10;0.10;;;;;;;-6.46;67.11;103144.56;15714938;28;20408;-48
2024/01/09 21:58:52;;;;;;;6.15;1.45;;;;;;;-7.37;69.70;103148.56;15732451;28;20049;-49
2024/01/09 22:06:28;;;;;;;0.75;0.75;;;;;;;-7.82;70.82;103142.63;15723477;28;20148;-48
2024/01/09 22:14:01;;;;;;;0.25;0.25;;;;;;;-7.22;70.15;103122.13;15740254;28;20068;-45
2024/01/09 22:21:41;;;;;;;0.10;0.10;;;;;;;-6.90;68.05;103122.22;15729279;28;20110;-49
2024/01/09 22:29:15;;;;;;;0.10;0.10;;;;;;;-7.13;68.47;103122.78;15708323;28;20048;-45
2024/01/09 22:36:49;;;;;;;0.10;0.10;;;;;;;-7.01;67.92;103110.28;15708291;28;20032;-51
2024/01/09 22:44:23;;;;;;;0.10;0.10;;;;;;;-7.15;68.38;103106.31;15732617;28;20129;-47
2024/01/09 22:51:57;;;;;;;0.25;0.25;;;;;;;-7.81;70.34;103102.63;15729812;28;20118;-48
2024/01/09 22:59:31;;;;;;;0.10;0.10;;;;;;;-8.35;72.31;103113.31;15727287;28;20041;-49
2024/01/09 23:07:06;;;;;;;0.10;0.10;;;;;;;-8.28;72.97;103097.53;15723337;28;20044;-46
2024/01/09 23:14:57;;;;;;;2.95;2.60;;;;;;;-8.39;73.65;103093.44;15731774;28;20541;-50
2024/01/09 23:22:51;;;;;;;0.10;0.10;;;;;;;-8.64;74.39;103083.50;15712370;28;20045;-46
2024/01/09 23:30:42;;;;;;;0.20;0.20;;;;;;;-8.55;73.50;103077.28;15704019;28;20291;-47
2024/01/09 23:38:17;;;;;;;0.10;0.10;;;;;;;-8.50;74.12;103078.03;15713103;28;20067;-50
2024/01/09 23:45:50;;;;;;;2.35;2.15;;;;;;;-7.99;72.08;103070.00;15713403;28;20071;-48
2024/01/09 23:53:25;;;;;;;0.10;0.10;;;;;;;-8.41;72.23;103064.84;15704848;28;20683;-48
